Time;durP1;ratioP1;P1;durP2;ratioP2;P2;SDS_P1;SDS_P2;PMS_P1;PMS_P2;Temp;Humidity;BMP_temperature;BMP_pressure;BME280_temperature;BME280_humidity;BME280_pressure;Samples;Min_cycle;Max_cycle;Signal;HPM_P1;HPM_P2
2021/08/31 02:20:32;;;;;;;0.30;0.30;;;10.90;99.90;;;;;;5704210;23;20411;31
2021/08/31 06:01:44;;;;;;;0.50;0.50;;;10.80;99.90;;;;;;5456544;23;20461;-96
2021/08/31 07:54:51;;;;;;;0.10;0.10;;;11.20;99.90;;;;;;5059266;23;20438;-96
2021/08/31 08:04:25;;;;;;;;;;;;;;;;;;;;;
2021/08/31 08:34:32;;;;;;;0.28;0.28;;;11.60;99.90;;;;;;6048288;23;20390;31
2021/08/31 08:37:19;;;;;;;0.20;0.20;;;11.60;99.90;;;;;;4908249;29;20508;-96
2021/08/31 08:40:02;;;;;;;0.10;0.10;;;11.60;99.90;;;;;;4906446;29;20632;-96
2021/08/31 08:43:04;;;;;;;0.30;0.30;;;11.60;99.90;;;;;;4963676;23;20449;-96
2021/08/31 08:45:36;;;;;;;0.35;0.35;;;11.60;99.90;;;;;;4890554;29;20437;-96
2021/08/31 08:50:38;;;;;;;0.20;0.20;;;11.60;99.90;;;;;;5222105;23;20418;-95
2021/08/31 08:53:47;;;;;;;0.25;0.25;;;11.70;99.90;;;;;;4970244;28;20772;-96
2021/08/31 08:56:20;;;;;;;0.13;0.13;;;11.80;99.90;;;;;;4955986;23;20439;-95
2021/08/31 08:58:53;;;;;;;0.20;0.20;;;11.90;99.90;;;;;;4938293;29;20464;-96
2021/08/31 09:02:16;;;;;;;0.20;0.20;;;11.90;99.90;;;;;;4924508;29;20422;-96
2021/08/31 09:04:52;;;;;;;0.10;0.10;;;12.00;99.90;;;;;;4915037;29;20420;-95
2021/08/31 09:07:31;;;;;;;0.20;0.20;;;12.00;99.90;;;;;;4956889;23;20459;-96
2021/08/31 09:10:36;;;;;;;0.25;0.25;;;12.10;99.90;;;;;;5080535;23;20518;-96
2021/08/31 09:13:23;;;;;;;0.15;0.15;;;12.10;99.90;;;;;;5067731;23;20455;-96
2021/08/31 09:31:55;;;;;;;0.20;0.20;;;12.00;99.90;;;;;;4945212;29;20467;-96
2021/08/31 09:34:37;;;;;;;0.20;0.20;;;12.10;99.90;;;;;;4943433;23;20455;-96
2021/08/31 09:37:25;;;;;;;0.47;0.47;;;12.10;99.90;;;;;;4930813;29;20462;-96
2021/08/31 09:51:48;;;;;;;;;;;;;;;;;;;;;
2021/08/31 09:55:03;;;;;;;0.10;0.10;;;11.80;99.90;;;;;;5878069;23;20940;-96
2021/08/31 09:57:43;;;;;;;0.22;0.22;;;11.80;99.90;;;;;;5495285;23;21672;-95
2021/08/31 10:00:18;;;;;;;0.40;0.40;;;11.70;99.90;;;;;;4950423;28;20410;-96
2021/08/31 10:03:23;;;;;;;0.20;0.20;;;11.90;99.90;;;;;;4956130;29;20432;-95
2021/08/31 10:06:08;;;;;;;0.20;0.20;;;12.20;99.90;;;;;;4970294;23;20437;-96
2021/08/31 10:09:14;;;;;;;0.20;0.20;;;12.40;99.90;;;;;;4953829;23;20508;31
2021/08/31 10:11:53;;;;;;;0.20;0.20;;;12.50;99.90;;;;;;5001095;23;20398;-95
2021/08/31 10:14:50;;;;;;;0.10;0.10;;;12.50;99.90;;;;;;5011406;23;20609;-95
2021/08/31 10:17:26;;;;;;;0.17;0.17;;;12.50;99.90;;;;;;4960768;23;20458;-95
2021/08/31 10:20:50;;;;;;;;;;;;;;;;;;;;;
2021/08/31 10:24:12;;;;;;;0.17;0.17;;;12.90;99.90;;;;;;4816036;29;20415;-95
2021/08/31 11:18:20;;;;;;;0.30;0.30;;;14.80;99.90;;;;;;5263702;23;20429;-96
2021/08/31 14:36:24;;;;;;;0.10;0.10;;;14.50;99.90;;;;;;6072706;23;20384;31
2021/08/31 14:39:22;;;;;;;0.20;0.20;;;14.50;99.90;;;;;;4883072;29;20777;-96
2021/08/31 15:09:26;;;;;;;0.32;0.32;;;15.90;99.90;;;;;;3083983;23;20713;-95
2021/08/31 15:13:20;;;;;;;0.20;0.20;;;15.60;99.90;;;;;;4899067;29;20474;-96
2021/08/31 15:20:15;;;;;;;0.10;0.10;;;14.30;99.90;;;;;;4899538;29;20462;-96
2021/08/31 15:23:18;;;;;;;0.30;0.30;;;14.10;99.90;;;;;;4883146;29;20431;-96
2021/08/31 15:33:18;;;;;;;0.20;0.20;;;14.00;99.90;;;;;;4823837;29;20483;-96
2021/08/31 15:35:58;;;;;;;;;;;;;;;;;;;;;
2021/08/31 15:42:31;;;;;;;0.10;0.10;;;14.10;99.90;;;;;;4916985;29;20485;-96
2021/08/31 15:45:40;;;;;;;0.30;0.30;;;14.00;99.90;;;;;;4916801;29;20457;-96
2021/08/31 15:48:57;;;;;;;0.20;0.20;;;14.00;99.90;;;;;;4917862;29;20433;-95
2021/08/31 15:51:27;;;;;;;0.20;0.20;;;13.80;99.90;;;;;;4902092;29;20548;-96
2021/08/31 15:54:15;;;;;;;0.20;0.20;;;13.70;99.90;;;;;;4901795;29;20433;-96
2021/08/31 15:56:55;;;;;;;2.80;0.80;;;13.40;99.90;;;;;;4902534;29;20488;-96
2021/08/31 16:00:00;;;;;;;0.22;0.22;;;13.30;99.90;;;;;;4903070;29;20996;-96
2021/08/31 16:02:38;;;;;;;0.20;0.20;;;13.40;99.90;;;;;;4901146;29;20433;-96
2021/08/31 16:05:11;;;;;;;0.10;0.10;;;13.40;99.90;;;;;;4901415;29;20429;-96
2021/08/31 16:07:58;;;;;;;0.20;0.20;;;13.40;99.90;;;;;;4904021;29;20461;-95
2021/08/31 16:11:08;;;;;;;0.30;0.30;;;13.50;99.90;;;;;;4902434;29;20429;-95
2021/08/31 16:13:48;;;;;;;0.30;0.30;;;13.60;99.90;;;;;;4902564;29;20932;-96
2021/08/31 16:16:34;;;;;;;5.80;1.20;;;13.60;99.90;;;;;;4973504;23;20444;-96
2021/08/31 16:22:47;;;;;;;0.30;0.30;;;13.70;99.90;;;;;;4940473;29;20434;-96
2021/08/31 16:25:21;;;;;;;0.30;0.30;;;13.80;99.90;;;;;;4924028;29;20442;-96
2021/08/31 16:28:16;;;;;;;0.50;0.50;;;13.80;99.90;;;;;;4926557;29;20507;-96
2021/08/31 16:31:08;;;;;;;0.15;0.15;;;13.90;99.90;;;;;;4926474;29;20422;-96
2021/08/31 16:33:58;;;;;;;0.17;0.17;;;13.80;99.90;;;;;;4927782;29;20728;-95
2021/08/31 16:36:28;;;;;;;1.20;0.45;;;13.70;99.90;;;;;;4925434;29;20775;-95
2021/08/31 16:39:00;;;;;;;0.45;0.45;;;13.60;99.90;;;;;;4923306;29;20466;-95
2021/08/31 16:41:47;;;;;;;0.40;0.40;;;13.60;99.90;;;;;;4934779;29;20450;-95
2021/08/31 16:51:08;;;;;;;0.47;0.47;;;13.20;99.90;;;;;;4967257;28;20819;-95
2021/08/31 16:53:35;;;;;;;0.68;0.47;;;13.10;99.90;;;;;;4942056;29;20953;-95
2021/08/31 16:56:03;;;;;;;0.20;0.20;;;13.10;99.90;;;;;;4942375;29;20777;-96
2021/08/31 16:58:31;;;;;;;2.17;0.45;;;13.10;99.90;;;;;;4942088;29;20437;-95
2021/08/31 17:00:58;;;;;;;0.20;0.20;;;13.10;99.90;;;;;;4942116;29;20430;-96
2021/08/31 17:03:26;;;;;;;0.80;0.80;;;13.10;99.90;;;;;;4942140;29;20504;-96
2021/08/31 17:05:54;;;;;;;0.30;0.30;;;13.10;99.90;;;;;;4941997;29;20434;-96
2021/08/31 17:08:22;;;;;;;0.30;0.30;;;13.10;99.90;;;;;;4942180;29;20508;-96
2021/08/31 17:10:49;;;;;;;0.22;0.22;;;13.00;99.90;;;;;;4941719;29;20839;-96
2021/08/31 17:13:17;;;;;;;0.38;0.38;;;12.90;99.90;;;;;;4941564;29;20950;-96
2021/08/31 17:15:45;;;;;;;0.20;0.20;;;12.90;99.90;;;;;;4941967;29;20429;-96
2021/08/31 17:18:13;;;;;;;1.63;1.15;;;12.80;99.90;;;;;;4942017;29;20441;-95
2021/08/31 17:20:40;;;;;;;0.20;0.20;;;12.80;99.90;;;;;;4942007;29;20426;-95
2021/08/31 17:23:12;;;;;;;0.10;0.10;;;12.80;99.90;;;;;;4926560;29;22379;-96
2021/08/31 17:25:39;;;;;;;0.77;0.73;;;12.80;99.90;;;;;;4941710;29;20434;-95
2021/08/31 17:28:06;;;;;;;2.13;0.80;;;12.70;99.90;;;;;;4942252;29;20426;-96
2021/08/31 17:30:34;;;;;;;0.30;0.28;;;12.60;99.90;;;;;;4940491;29;20472;-96
2021/08/31 17:33:01;;;;;;;0.20;0.20;;;12.60;99.90;;;;;;4941200;29;20898;-95
2021/08/31 17:35:30;;;;;;;0.20;0.20;;;12.60;99.90;;;;;;4942148;29;20949;-95
2021/08/31 17:37:58;;;;;;;0.20;0.20;;;12.50;99.90;;;;;;4941482;29;20434;-96
2021/08/31 17:40:25;;;;;;;0.90;0.60;;;12.40;99.90;;;;;;4941202;29;20753;-96
2021/08/31 17:42:54;;;;;;;0.30;0.30;;;12.50;99.90;;;;;;4941529;29;20433;-96
2021/08/31 17:45:30;;;;;;;1.10;0.80;;;12.50;99.90;;;;;;4941525;29;20484;-96
2021/08/31 17:48:06;;;;;;;0.13;0.13;;;12.40;99.90;;;;;;4938007;29;20831;-96
2021/08/31 17:50:38;;;;;;;0.20;0.20;;;12.40;99.90;;;;;;4938415;29;20423;-96
2021/08/31 17:53:14;;;;;;;0.28;0.28;;;12.30;99.90;;;;;;4938600;29;20451;-96
2021/08/31 17:55:46;;;;;;;0.17;0.17;;;12.40;99.90;;;;;;4940495;29;20427;-96
2021/08/31 17:58:27;;;;;;;0.38;0.38;;;12.30;99.90;;;;;;4939883;29;20439;-96
2021/08/31 18:00:56;;;;;;;0.20;0.20;;;12.30;99.90;;;;;;4939726;29;20431;-96
2021/08/31 18:03:33;;;;;;;;;;;;;;;;;;;;;
2021/08/31 18:06:11;;;;;;;0.70;0.70;;;12.20;99.90;;;;;;4940225;29;20514;-96
2021/08/31 18:08:47;;;;;;;0.10;0.10;;;12.20;99.90;;;;;;4940067;29;20435;-96
2021/08/31 18:11:20;;;;;;;1.00;0.70;;;12.10;99.90;;;;;;4938404;29;20469;-96
2021/08/31 18:13:52;;;;;;;0.80;0.47;;;12.10;99.90;;;;;;4938852;29;20451;-96
2021/08/31 18:16:20;;;;;;;0.55;0.55;;;12.00;99.90;;;;;;4938381;29;20435;-96
2021/08/31 18:18:47;;;;;;;0.30;0.30;;;12.00;99.90;;;;;;4937860;29;20427;-96
2021/08/31 18:21:18;;;;;;;0.35;0.35;;;12.00;99.90;;;;;;4937154;29;20471;-95
2021/08/31 18:23:45;;;;;;;0.40;0.40;;;12.00;99.90;;;;;;4937222;29;20991;-96
2021/08/31 18:26:13;;;;;;;0.20;0.20;;;11.90;99.90;;;;;;4937415;29;20506;-95
2021/08/31 18:28:43;;;;;;;2.20;1.00;;;11.90;99.90;;;;;;4953467;28;20478;-96
2021/08/31 18:31:10;;;;;;;0.30;0.30;;;11.90;99.90;;;;;;4930778;29;20436;-96
2021/08/31 18:33:39;;;;;;;0.20;0.20;;;11.80;99.90;;;;;;4937362;29;20443;-96
2021/08/31 18:36:06;;;;;;;0.32;0.32;;;11.80;99.90;;;;;;4937292;29;20432;-95
2021/08/31 18:38:34;;;;;;;0.10;0.10;;;11.80;99.90;;;;;;4936926;29;20431;-96
2021/08/31 18:41:02;;;;;;;0.50;0.50;;;11.70;99.90;;;;;;4936717;29;20783;-95
2021/08/31 18:43:33;;;;;;;0.70;0.50;;;11.80;99.90;;;;;;4936816;29;20927;-96
2021/08/31 18:46:00;;;;;;;0.10;0.10;;;11.70;99.90;;;;;;4940702;29;20440;-96
2021/08/31 18:48:27;;;;;;;0.20;0.20;;;11.70;99.90;;;;;;4956363;29;20430;-96
2021/08/31 18:50:55;;;;;;;2.30;1.50;;;11.70;99.90;;;;;;4940803;29;20453;-95
2021/08/31 18:53:22;;;;;;;0.43;0.43;;;11.70;99.90;;;;;;4940009;29;20446;-96
2021/08/31 18:55:49;;;;;;;0.20;0.20;;;11.70;99.90;;;;;;4940541;29;20425;-95
2021/08/31 18:58:16;;;;;;;0.50;0.50;;;11.80;99.90;;;;;;4940200;29;20967;-93
2021/08/31 19:00:43;;;;;;;0.20;0.20;;;11.70;99.90;;;;;;4939710;29;20513;-95
2021/08/31 19:03:11;;;;;;;0.20;0.20;;;11.70;99.90;;;;;;4939697;29;20517;-95
2021/08/31 19:05:39;;;;;;;0.10;0.10;;;11.60;99.90;;;;;;4939804;29;20432;-96
2021/08/31 19:08:07;;;;;;;2.70;1.00;;;11.60;99.90;;;;;;4940101;29;20568;-95
2021/08/31 19:10:36;;;;;;;2.10;0.90;;;11.60;99.90;;;;;;4940644;29;20432;-96
2021/08/31 19:13:06;;;;;;;2.30;1.20;;;11.70;99.90;;;;;;4940363;29;20444;-96
2021/08/31 19:15:45;;;;;;;0.40;0.40;;;11.60;99.90;;;;;;4941537;29;20529;-96
2021/08/31 19:18:13;;;;;;;0.20;0.20;;;11.60;99.90;;;;;;4940101;29;20436;-95
2021/08/31 19:20:40;;;;;;;0.20;0.20;;;11.60;99.90;;;;;;4940202;29;20516;-96
2021/08/31 19:23:08;;;;;;;0.45;0.45;;;11.60;99.90;;;;;;4939589;29;20500;-95
2021/08/31 19:25:43;;;;;;;0.30;0.30;;;11.50;99.90;;;;;;4940126;29;20429;-95
2021/08/31 19:29:31;;;;;;;;;;;;;;;;;;;;;
2021/08/31 20:55:50;;;;;;;1.80;1.05;;;11.10;99.90;;;;;;5209893;23;20510;-96
2021/08/31 20:58:27;;;;;;;0.25;0.25;;;11.10;99.90;;;;;;4934479;29;20432;-96
2021/08/31 21:01:09;;;;;;;0.40;0.40;;;11.10;99.90;;;;;;4929570;29;20428;-96
2021/08/31 21:04:03;;;;;;;0.38;0.38;;;11.10;99.90;;;;;;4933019;29;20423;-96
2021/08/31 21:06:54;;;;;;;0.38;0.38;;;11.10;99.90;;;;;;4893819;29;20440;-96
2021/08/31 21:10:13;;;;;;;0.60;0.60;;;11.10;99.90;;;;;;4884831;29;20502;-96
2021/08/31 21:19:35;;;;;;;;;;;;;;;;;;;;;
2021/08/31 21:23:00;;;;;;;;;;;;;;;;;;;;;
2021/08/31 21:25:57;;;;;;;0.10;0.10;;;11.10;99.90;;;;;;4782937;30;21036;-96
2021/08/31 21:32:23;;;;;;;0.25;0.25;;;11.10;99.90;;;;;;4742861;30;20484;-96
2021/08/31 21:35:07;;;;;;;3.10;0.80;;;11.10;99.90;;;;;;4746692;30;20461;-96
2021/08/31 21:37:56;;;;;;;0.50;0.40;;;11.20;99.90;;;;;;4742817;30;20465;-96
2021/08/31 21:40:39;;;;;;;0.40;0.40;;;11.10;99.90;;;;;;4776571;30;20451;-96
2021/08/31 21:43:15;;;;;;;1.77;0.90;;;11.10;99.90;;;;;;4766903;30;20446;-96
2021/08/31 21:46:09;;;;;;;0.40;0.40;;;11.20;99.90;;;;;;4770606;30;20437;-96
2021/08/31 21:48:55;;;;;;;0.30;0.30;;;11.10;99.90;;;;;;4783103;30;20511;-96
2021/08/31 21:51:32;;;;;;;0.35;0.35;;;11.10;99.90;;;;;;4770085;30;20528;-96
2021/08/31 21:54:24;;;;;;;0.20;0.20;;;11.10;99.90;;;;;;4806943;29;20470;-96
2021/08/31 21:57:06;;;;;;;0.80;0.70;;;11.20;99.90;;;;;;5039550;23;20448;-96
2021/08/31 21:59:38;;;;;;;0.65;0.35;;;11.20;99.90;;;;;;4954975;29;20403;-96
2021/08/31 22:02:45;;;;;;;;;;;;;;;;;;;;;
2021/08/31 23:25:39;;;;;;;0.20;0.20;;;10.90;99.90;;;;;;4914475;29;20579;-96
